createdAt,value
2019-05-10T00:00:25.753Z,8.30
2019-05-10T00:03:12.765Z,8.30
2019-05-10T00:05:59.860Z,8.40
2019-05-10T00:08:46.342Z,8.40
2019-05-10T00:11:39.874Z,8.50
2019-05-10T00:14:32.794Z,8.50
2019-05-10T00:17:19.635Z,8.60
2019-05-10T00:19:48.657Z,8.60
2019-05-10T00:22:18.326Z,8.50
2019-05-10T00:25:02.367Z,8.40
2019-05-10T00:27:19.067Z,8.40
2019-05-10T00:29:47.897Z,8.30
2019-05-10T00:32:17.239Z,8.30
2019-05-10T00:34:46.235Z,8.30
2019-05-10T00:37:15.345Z,8.40
2019-05-10T00:39:44.867Z,8.40
2019-05-10T00:42:13.661Z,8.40
2019-05-10T00:44:43.054Z,8.40
2019-05-10T00:47:12.185Z,8.40
2019-05-10T00:49:41.349Z,8.50
2019-05-10T00:52:10.554Z,8.50
2019-05-10T00:54:40.159Z,8.60
2019-05-10T00:57:09.651Z,8.60
2019-05-10T00:59:39.290Z,8.60
2019-05-10T01:02:08.647Z,8.60
2019-05-10T01:04:37.826Z,8.60
2019-05-10T01:07:07.367Z,8.60
2019-05-10T01:09:36.444Z,8.60
2019-05-10T01:12:05.969Z,8.60
2019-05-10T01:14:35.045Z,8.60
2019-05-10T01:17:03.905Z,8.60
2019-05-10T01:19:33.017Z,8.70
2019-05-10T01:22:02.355Z,8.70
2019-05-10T01:24:31.165Z,8.60
2019-05-10T01:27:00.013Z,8.60
2019-05-10T01:29:28.781Z,8.50
2019-05-10T01:31:58.570Z,8.40
2019-05-10T01:34:27.584Z,8.30
2019-05-10T01:36:56.835Z,8.30
2019-05-10T01:39:25.847Z,8.30
2019-05-10T01:41:55.334Z,8.30
2019-05-10T01:44:24.587Z,8.30
2019-05-10T01:46:53.601Z,8.30
2019-05-10T01:49:22.684Z,8.30
2019-05-10T01:51:52.012Z,8.30
2019-05-10T01:54:21.030Z,8.30
2019-05-10T01:56:50.043Z,8.30
2019-05-10T01:59:18.821Z,8.10
2019-05-10T02:01:47.841Z,8.00
2019-05-10T02:04:17.702Z,7.80
2019-05-10T02:06:47.537Z,7.70
2019-05-10T02:09:16.736Z,7.70
2019-05-10T02:11:45.937Z,7.60
2019-05-10T02:14:15.106Z,7.60
2019-05-10T02:16:44.618Z,7.50
2019-05-10T02:19:13.714Z,7.60
2019-05-10T02:21:42.735Z,7.60
2019-05-10T02:24:11.532Z,7.60
2019-05-10T02:26:40.984Z,7.70
2019-05-10T02:29:10.311Z,7.70
2019-05-10T02:31:39.722Z,7.70
2019-05-10T02:34:08.910Z,7.70
2019-05-10T02:36:37.688Z,7.70
2019-05-10T02:39:07.755Z,7.70
2019-05-10T02:41:36.547Z,7.70
2019-05-10T02:44:05.480Z,7.70
2019-05-10T02:46:34.571Z,7.70
2019-05-10T02:49:03.360Z,7.70
2019-05-10T02:51:32.486Z,7.70
2019-05-10T02:54:01.597Z,7.70
2019-05-10T02:56:32.675Z,7.70
2019-05-10T02:59:02.312Z,7.70
2019-05-10T03:01:31.632Z,7.70
2019-05-10T03:04:02.474Z,7.70
2019-05-10T03:06:35.121Z,7.70
2019-05-10T03:09:06.801Z,7.70
2019-05-10T03:11:45.961Z,7.80
2019-05-10T03:14:19.237Z,7.80
2019-05-10T03:16:51.272Z,7.80
2019-05-10T03:19:21.554Z,7.80
2019-05-10T03:21:57.067Z,7.90
2019-05-10T03:24:27.821Z,7.80
2019-05-10T03:26:57.603Z,7.80
2019-05-10T03:29:26.407Z,7.80
2019-05-10T03:31:55.643Z,7.80
2019-05-10T03:34:25.648Z,7.80
2019-05-10T03:36:54.915Z,7.70
2019-05-10T03:39:23.762Z,7.90
2019-05-10T03:41:52.780Z,8.00
2019-05-10T03:44:21.883Z,8.10
2019-05-10T03:46:50.667Z,8.10
2019-05-10T03:49:20.342Z,8.10
2019-05-10T03:51:49.357Z,8.10
2019-05-10T03:54:18.382Z,8.10
2019-05-10T03:56:48.030Z,8.10
2019-05-10T03:59:17.518Z,8.10
2019-05-10T04:01:46.632Z,8.10
2019-05-10T04:04:15.857Z,8.10
2019-05-10T04:06:45.295Z,8.10
2019-05-10T04:09:14.163Z,8.10
2019-05-10T04:11:43.450Z,8.00
2019-05-10T04:14:12.887Z,8.10
2019-05-10T04:16:41.976Z,8.10
2019-05-10T04:19:10.846Z,8.10
2019-05-10T04:21:39.877Z,8.10
2019-05-10T04:24:09.181Z,8.10
2019-05-10T04:26:38.568Z,8.10
2019-05-10T04:29:07.982Z,8.10
2019-05-10T04:31:37.379Z,8.20
2019-05-10T04:34:06.467Z,8.20
2019-05-10T04:36:35.578Z,8.30
2019-05-10T04:39:06.235Z,8.30
2019-05-10T04:41:35.010Z,8.40
2019-05-10T04:44:04.183Z,8.40
2019-05-10T04:46:34.181Z,8.40
2019-05-10T04:49:03.747Z,8.40
2019-05-10T04:51:32.877Z,8.40
2019-05-10T04:54:02.317Z,8.50
2019-05-10T04:56:31.329Z,8.60
2019-05-10T04:59:00.665Z,8.60
2019-05-10T05:01:29.688Z,8.70
2019-05-10T05:03:58.474Z,8.70
2019-05-10T05:06:27.285Z,8.80
2019-05-10T05:08:56.479Z,8.80
2019-05-10T05:11:25.670Z,8.90
2019-05-10T05:13:54.878Z,9.00
2019-05-10T05:16:23.766Z,9.00
2019-05-10T05:18:52.673Z,9.00
2019-05-10T05:21:22.174Z,9.00
2019-05-10T05:23:51.273Z,9.00
2019-05-10T05:26:20.879Z,9.00
2019-05-10T05:28:50.264Z,9.00
2019-05-10T05:31:19.361Z,9.00
2019-05-10T05:33:49.074Z,9.00
2019-05-10T05:36:18.474Z,9.00
2019-05-10T05:38:49.598Z,9.00
2019-05-10T05:41:18.445Z,9.00
2019-05-10T05:43:48.201Z,8.90
2019-05-10T05:46:17.737Z,9.00
2019-05-10T05:48:46.582Z,9.00
2019-05-10T05:51:15.621Z,9.00
2019-05-10T05:53:44.854Z,8.90
2019-05-10T05:56:14.694Z,8.90
2019-05-10T05:58:46.795Z,8.90
2019-05-10T06:01:24.668Z,8.90
2019-05-10T06:03:45.694Z,8.90
2019-05-10T06:06:20.493Z,8.90
2019-05-10T06:08:45.997Z,8.90
2019-05-10T06:11:15.156Z,9.00
2019-05-10T06:13:44.279Z,9.10
2019-05-10T06:16:14.865Z,9.10
2019-05-10T06:18:47.331Z,9.10
2019-05-10T06:21:17.765Z,9.10
2019-05-10T06:23:46.134Z,9.20
2019-05-10T06:26:26.541Z,9.20
2019-05-10T06:29:04.481Z,9.30
2019-05-10T06:31:16.493Z,9.50
2019-05-10T06:33:46.809Z,9.80
2019-05-10T06:36:16.248Z,10.00
2019-05-10T06:38:45.739Z,10.10
2019-05-10T06:41:16.799Z,10.10
2019-05-10T06:43:51.172Z,10.20
2019-05-10T06:46:16.650Z,10.20
2019-05-10T06:48:45.914Z,10.20
2019-05-10T06:51:14.702Z,10.20
2019-05-10T06:53:51.959Z,10.30
2019-05-10T06:56:14.538Z,10.30
2019-05-10T06:58:43.638Z,10.50
2019-05-10T07:01:12.724Z,10.60
2019-05-10T07:03:41.512Z,10.70
2019-05-10T07:06:10.820Z,10.80
2019-05-10T07:08:44.255Z,10.90
2019-05-10T07:11:10.594Z,10.90
2019-05-10T07:13:40.340Z,11.00
2019-05-10T07:16:14.526Z,11.10
2019-05-10T07:18:41.557Z,11.10
2019-05-10T07:21:10.677Z,10.90
2019-05-10T07:23:45.175Z,10.90
2019-05-10T07:26:10.352Z,10.90
2019-05-10T07:28:39.449Z,10.90
2019-05-10T07:31:08.487Z,10.80
2019-05-10T07:33:40.137Z,10.80
2019-05-10T07:36:14.911Z,10.80
2019-05-10T07:38:40.273Z,10.90
2019-05-10T07:41:09.377Z,10.90
2019-05-10T07:43:38.840Z,11.00
2019-05-10T07:46:09.042Z,11.20
2019-05-10T07:48:41.164Z,11.40
2019-05-10T07:51:09.090Z,11.50
2019-05-10T07:53:38.856Z,11.70
2019-05-10T07:56:08.025Z,11.70
2019-05-10T07:58:38.126Z,11.80
2019-05-10T08:01:07.888Z,11.80
2019-05-10T08:03:44.341Z,11.90
2019-05-10T08:06:08.447Z,12.00
2019-05-10T08:08:39.060Z,12.10
2019-05-10T08:11:08.641Z,12.20
2019-05-10T08:13:39.340Z,12.10
2019-05-10T08:16:11.789Z,12.20
2019-05-10T08:18:42.376Z,12.30
2019-05-10T08:21:21.454Z,12.50
2019-05-10T08:23:43.763Z,12.40
2019-05-10T08:26:19.846Z,12.30
2019-05-10T08:28:44.555Z,12.60
2019-05-10T08:31:14.284Z,13.50
2019-05-10T08:33:52.783Z,14.00
2019-05-10T08:36:14.730Z,14.50
2019-05-10T08:38:46.147Z,15.00
2019-05-10T08:41:18.290Z,15.30
2019-05-10T08:43:45.817Z,15.80
2019-05-10T08:46:19.386Z,16.10
2019-05-10T08:48:50.589Z,16.10
2019-05-10T08:51:17.381Z,16.40
2019-05-10T08:53:51.844Z,16.80
2019-05-10T08:56:23.483Z,16.80
2019-05-10T08:58:54.983Z,16.70
2019-05-10T09:01:29.619Z,16.20
2019-05-10T09:04:00.119Z,15.80
2019-05-10T09:06:25.727Z,15.40
2019-05-10T09:09:01.534Z,15.00
2019-05-10T09:11:26.034Z,14.80
2019-05-10T09:13:57.830Z,14.60
2019-05-10T09:16:28.993Z,14.20
2019-05-10T09:18:56.634Z,14.40
2019-05-10T09:21:25.773Z,14.50
2019-05-10T09:24:01.711Z,14.50
2019-05-10T09:26:25.384Z,14.60
2019-05-10T09:28:57.518Z,14.90
2019-05-10T09:31:25.987Z,15.10
2019-05-10T09:33:54.964Z,14.90
2019-05-10T09:36:30.970Z,14.60
2019-05-10T09:38:55.062Z,14.60
2019-05-10T09:41:27.625Z,14.80
2019-05-10T09:43:54.953Z,15.00
2019-05-10T09:46:23.996Z,15.70
2019-05-10T09:48:54.513Z,16.30
2019-05-10T09:51:28.683Z,16.70
2019-05-10T09:53:54.710Z,16.80
2019-05-10T09:56:23.830Z,16.50
2019-05-10T09:58:53.334Z,16.00
2019-05-10T10:01:22.417Z,15.50
2019-05-10T10:03:51.793Z,15.40
2019-05-10T10:06:20.937Z,15.50
2019-05-10T10:08:53.337Z,15.70
2019-05-10T10:11:21.094Z,15.70
2019-05-10T10:13:59.388Z,15.80
2019-05-10T10:16:21.278Z,16.50
2019-05-10T10:18:50.064Z,17.20
2019-05-10T10:21:30.603Z,17.10
2019-05-10T10:23:49.564Z,17.00
2019-05-10T10:26:22.194Z,17.00
2019-05-10T10:28:54.842Z,16.70
2019-05-10T10:31:29.522Z,16.90
2019-05-10T10:33:58.317Z,16.90
2019-05-10T10:36:22.163Z,16.60
2019-05-10T10:38:51.182Z,16.30
2019-05-10T10:41:25.954Z,16.10
2019-05-10T10:43:51.406Z,16.20
2019-05-10T10:46:20.187Z,16.60
2019-05-10T10:48:51.079Z,17.30
2019-05-10T10:51:19.636Z,17.60
2019-05-10T10:53:49.177Z,17.70
2019-05-10T10:56:18.104Z,17.80
2019-05-10T10:58:49.804Z,17.70
2019-05-10T11:01:24.997Z,17.50
2019-05-10T11:03:49.845Z,17.60
2019-05-10T11:06:18.997Z,18.10
2019-05-10T11:08:48.453Z,18.40
2019-05-10T11:11:17.496Z,18.40
2019-05-10T11:13:57.537Z,18.40
2019-05-10T11:16:17.477Z,18.20
2019-05-10T11:18:46.886Z,18.30
2019-05-10T11:21:16.086Z,18.40
2019-05-10T11:23:45.242Z,18.10
2019-05-10T11:26:14.435Z,17.80
2019-05-10T11:28:44.392Z,17.70
2019-05-10T11:31:13.679Z,17.80
2019-05-10T11:33:47.308Z,17.40
2019-05-10T11:36:13.326Z,16.20
2019-05-10T11:38:47.044Z,15.40
2019-05-10T11:41:21.374Z,15.10
2019-05-10T11:43:44.642Z,15.00
2019-05-10T11:46:14.005Z,14.70
2019-05-10T11:48:42.809Z,14.40
2019-05-10T11:51:17.197Z,14.20
2019-05-10T11:53:42.782Z,13.90
2019-05-10T11:56:14.147Z,14.00
2019-05-10T11:58:45.960Z,14.10
2019-05-10T12:03:44.973Z,14.20
2019-05-10T12:06:14.365Z,14.50
2019-05-10T12:08:43.867Z,14.50
2019-05-10T12:11:27.737Z,14.70
2019-05-10T12:13:44.594Z,15.10
2019-05-10T12:16:16.800Z,14.80
2019-05-10T12:19:01.147Z,14.50
2019-05-10T12:21:15.263Z,14.30
2019-05-10T12:23:50.386Z,14.50
2019-05-10T12:25:59.687Z,14.10
2019-05-10T12:27:13.170Z,14.70
2019-05-10T12:28:46.564Z,15.00
2019-05-10T12:31:17.042Z,15.30
2019-05-10T12:33:46.465Z,15.40
2019-05-10T12:36:23.720Z,15.30
2019-05-10T12:38:46.992Z,15.60
2019-05-10T12:41:16.332Z,16.00
2019-05-10T12:43:48.315Z,15.80
2019-05-10T12:46:16.838Z,16.10
2019-05-10T12:48:45.989Z,16.40
2019-05-10T12:51:16.320Z,15.90
2019-05-10T12:53:49.348Z,15.80
2019-05-10T12:56:16.958Z,16.10
2019-05-10T12:58:56.801Z,16.40
2019-05-10T13:01:16.660Z,17.00
2019-05-10T13:03:45.982Z,17.40
2019-05-10T13:06:19.157Z,17.60
2019-05-10T13:08:46.451Z,17.20
2019-05-10T13:11:19.168Z,17.30
2019-05-10T13:13:45.778Z,17.50
2019-05-10T13:16:14.881Z,17.30
2019-05-10T13:18:52.739Z,17.30
2019-05-10T13:21:20.907Z,17.50
2019-05-10T13:23:45.643Z,17.60
2019-05-10T13:26:14.830Z,17.60
2019-05-10T13:28:43.947Z,17.40
2019-05-10T13:31:14.959Z,17.70
2019-05-10T13:33:44.381Z,17.80
2019-05-10T13:36:13.674Z,17.70
2019-05-10T13:38:48.621Z,17.70
2019-05-10T13:41:18.024Z,17.70
2019-05-10T13:43:45.222Z,17.70
2019-05-10T13:46:14.077Z,17.80
2019-05-10T13:48:43.383Z,17.80
2019-05-10T13:51:12.648Z,18.00
2019-05-10T13:53:41.939Z,18.40
2019-05-10T13:56:11.122Z,18.70
2019-05-10T13:58:40.040Z,18.80
2019-05-10T14:01:13.111Z,18.50
2019-05-10T14:03:45.197Z,18.50
2019-05-10T14:06:10.965Z,18.50
2019-05-10T14:08:42.780Z,18.60
2019-05-10T14:11:10.774Z,18.90
2019-05-10T14:13:41.586Z,18.70
2019-05-10T14:16:18.230Z,18.50
2019-05-10T14:18:41.531Z,18.80
2019-05-10T14:21:10.544Z,19.10
2019-05-10T14:23:39.637Z,19.10
2019-05-10T14:26:15.461Z,19.10
2019-05-10T14:28:40.456Z,18.90
2019-05-10T14:31:09.876Z,18.50
2019-05-10T14:33:38.953Z,18.50
2019-05-10T14:36:08.003Z,18.40
2019-05-10T14:38:37.245Z,18.30
2019-05-10T14:41:10.725Z,18.00
2019-05-10T14:43:37.474Z,17.80
2019-05-10T14:46:13.525Z,17.50
2019-05-10T14:48:38.133Z,17.20
2019-05-10T14:51:11.045Z,16.30
2019-05-10T14:53:38.186Z,15.70
2019-05-10T14:56:07.868Z,15.30
2019-05-10T14:58:38.217Z,15.20
2019-05-10T15:01:07.142Z,15.00
2019-05-10T15:03:44.988Z,15.00
2019-05-10T15:06:06.824Z,15.30
2019-05-10T15:08:36.109Z,15.40
2019-05-10T15:11:05.347Z,15.50
2019-05-10T15:13:35.226Z,15.70
2019-05-10T15:16:08.241Z,15.50
2019-05-10T15:18:35.037Z,15.50
2019-05-10T15:21:04.121Z,15.20
2019-05-10T15:23:33.390Z,15.20
2019-05-10T15:26:10.618Z,14.90
2019-05-10T15:28:40.036Z,15.00
2019-05-10T15:31:04.748Z,15.10
2019-05-10T15:33:33.766Z,15.10
2019-05-10T15:36:02.846Z,15.10
2019-05-10T15:38:32.233Z,14.90
2019-05-10T15:41:01.115Z,15.00
2019-05-10T15:43:30.353Z,14.80
2019-05-10T15:45:59.470Z,14.70
2019-05-10T15:48:28.333Z,14.90
2019-05-10T15:50:57.577Z,15.10
2019-05-10T15:53:27.436Z,15.00
2019-05-10T15:55:58.914Z,15.20
2019-05-10T15:58:30.599Z,14.90
2019-05-10T16:00:59.048Z,14.90
2019-05-10T16:03:28.431Z,15.20
2019-05-10T16:06:00.787Z,15.30
2019-05-10T16:08:30.392Z,15.00
2019-05-10T16:10:59.547Z,15.10
2019-05-10T16:13:28.615Z,15.10
2019-05-10T16:15:59.424Z,15.00
2019-05-10T16:18:33.306Z,14.70
2019-05-10T16:20:59.781Z,14.80
2019-05-10T16:23:28.661Z,14.70
2019-05-10T16:25:58.058Z,15.30
2019-05-10T16:28:26.822Z,15.60
2019-05-10T16:30:55.690Z,15.90
2019-05-10T16:33:24.969Z,16.40
2019-05-10T16:35:54.241Z,16.60
2019-05-10T16:38:23.547Z,16.50
2019-05-10T16:40:58.407Z,16.40
2019-05-10T16:43:24.827Z,16.40
2019-05-10T16:45:53.869Z,16.50
2019-05-10T16:48:22.658Z,16.60
2019-05-10T16:50:52.086Z,16.50
2019-05-10T16:53:20.861Z,16.40
2019-05-10T16:55:49.629Z,16.60
2019-05-10T16:58:22.132Z,16.60
2019-05-10T17:00:49.414Z,16.60
2019-05-10T17:03:20.587Z,16.50
2019-05-10T17:05:53.687Z,16.40
2019-05-10T17:08:20.980Z,16.20
2019-05-10T17:10:50.248Z,16.00
2019-05-10T17:13:19.825Z,15.90
2019-05-10T17:15:49.160Z,15.80
2019-05-10T17:18:19.970Z,15.60
2019-05-10T17:20:50.969Z,15.40
2019-05-10T17:23:20.266Z,15.40
2019-05-10T17:25:49.778Z,15.30
2019-05-10T17:28:18.809Z,15.30
2019-05-10T17:30:47.978Z,15.50
2019-05-10T17:33:17.338Z,15.90
2019-05-10T17:35:46.578Z,16.60
2019-05-10T17:38:16.290Z,17.00
2019-05-10T17:40:47.560Z,18.20
2019-05-10T17:43:20.825Z,20.20
2019-05-10T17:45:48.058Z,20.50
2019-05-10T17:48:17.001Z,20.50
2019-05-10T17:50:46.444Z,21.10
2019-05-10T17:53:15.906Z,21.90
2019-05-10T17:55:49.472Z,20.80
2019-05-10T17:58:17.149Z,21.80
2019-05-10T18:00:46.305Z,22.90
2019-05-10T18:03:15.670Z,23.80
2019-05-10T18:05:46.876Z,22.90
2019-05-10T18:08:15.784Z,20.60
2019-05-10T18:10:44.972Z,18.90
2019-05-10T18:13:14.203Z,17.30
2019-05-10T18:15:43.267Z,16.30
2019-05-10T18:18:12.303Z,15.50
2019-05-10T18:20:44.039Z,14.90
2019-05-10T18:23:20.467Z,14.50
2019-05-10T18:25:42.859Z,14.40
2019-05-10T18:28:11.888Z,14.10
2019-05-10T18:30:41.147Z,13.80
2019-05-10T18:33:12.618Z,13.60
2019-05-10T18:35:41.371Z,13.30
2019-05-10T18:38:10.150Z,13.00
2019-05-10T18:40:39.392Z,12.80
2019-05-10T18:43:08.676Z,12.50
2019-05-10T18:45:38.323Z,12.30
2019-05-10T18:48:07.263Z,12.10
2019-05-10T18:50:39.692Z,11.90
2019-05-10T18:53:08.098Z,11.80
2019-05-10T18:55:37.210Z,11.60
2019-05-10T18:58:06.937Z,11.50
2019-05-10T19:00:35.714Z,11.40
2019-05-10T19:03:04.724Z,11.20
2019-05-10T19:05:33.995Z,11.20
2019-05-10T19:08:05.761Z,11.10
2019-05-10T19:10:34.541Z,11.00
2019-05-10T19:13:05.549Z,10.90
2019-05-10T19:15:34.842Z,10.80
2019-05-10T19:18:04.225Z,10.70
2019-05-10T19:20:33.739Z,10.60
2019-05-10T19:23:05.393Z,10.50
2019-05-10T19:25:33.358Z,10.40
2019-05-10T19:28:02.366Z,10.40
2019-05-10T19:30:31.924Z,10.30
2019-05-10T19:33:01.337Z,10.20
2019-05-10T19:35:35.628Z,10.10
2019-05-10T19:38:01.607Z,10.10
2019-05-10T19:40:30.509Z,10.10
2019-05-10T19:42:59.874Z,10.00
2019-05-10T19:45:31.054Z,10.00
2019-05-10T19:47:59.416Z,10.00
2019-05-10T19:50:30.761Z,9.90
2019-05-10T19:53:03.785Z,9.90
2019-05-10T19:55:30.457Z,9.90
2019-05-10T19:57:59.766Z,10.00
2019-05-10T20:00:28.984Z,10.10
2019-05-10T20:02:58.698Z,10.20
2019-05-10T20:05:27.867Z,10.20
2019-05-10T20:07:57.228Z,10.10
2019-05-10T20:10:26.002Z,10.20
2019-05-10T20:12:55.462Z,10.20
2019-05-10T20:15:24.270Z,10.20
2019-05-10T20:17:53.338Z,10.30
2019-05-10T20:20:22.492Z,10.40
2019-05-10T20:22:52.058Z,10.50
2019-05-10T20:25:20.911Z,10.50
2019-05-10T20:27:50.426Z,10.50
2019-05-10T20:30:20.164Z,10.60
2019-05-10T20:32:49.174Z,10.60
2019-05-10T20:35:18.443Z,10.80
2019-05-10T20:38:00.710Z,11.00
2019-05-10T20:40:18.393Z,11.10
2019-05-10T20:42:47.487Z,11.20
2019-05-10T20:45:16.688Z,11.40
2019-05-10T20:47:45.776Z,11.40
2019-05-10T20:50:15.494Z,11.50
2019-05-10T20:52:44.580Z,11.60
2019-05-10T20:55:14.121Z,11.50
2019-05-10T20:57:43.255Z,11.50
2019-05-10T21:00:12.337Z,11.50
2019-05-10T21:02:41.602Z,11.60
2019-05-10T21:05:10.538Z,11.60
2019-05-10T21:07:39.338Z,11.60
2019-05-10T21:10:08.549Z,11.60
2019-05-10T21:12:38.066Z,11.60
2019-05-10T21:15:08.138Z,11.60
2019-05-10T21:17:37.220Z,11.70
2019-05-10T21:20:06.182Z,11.60
2019-05-10T21:22:35.193Z,11.60
2019-05-10T21:25:04.430Z,11.60
2019-05-10T21:27:33.562Z,11.60
2019-05-10T21:30:02.663Z,11.50
2019-05-10T21:32:31.759Z,11.50
2019-05-10T21:35:00.559Z,11.40
2019-05-10T21:37:29.380Z,11.40
2019-05-10T21:39:58.838Z,11.40
2019-05-10T21:42:27.699Z,11.30
2019-05-10T21:44:56.486Z,11.30
2019-05-10T21:47:25.954Z,11.40
2019-05-10T21:49:54.719Z,11.40
2019-05-10T21:52:23.942Z,11.50
2019-05-10T21:54:53.446Z,11.50
2019-05-10T21:57:22.545Z,11.40
2019-05-10T21:59:52.061Z,11.30
2019-05-10T22:02:21.346Z,11.30
2019-05-10T22:04:50.721Z,11.20
2019-05-10T22:07:20.167Z,11.20
2019-05-10T22:09:49.354Z,11.20
2019-05-10T22:12:18.478Z,11.20
2019-05-10T22:14:47.647Z,11.10
2019-05-10T22:17:17.289Z,11.10
2019-05-10T22:19:46.093Z,11.10
2019-05-10T22:22:15.254Z,11.10
2019-05-10T22:24:44.954Z,11.10
2019-05-10T22:27:14.150Z,11.20
2019-05-10T22:29:43.270Z,11.10
2019-05-10T22:32:12.453Z,11.30
2019-05-10T22:34:41.567Z,11.30
2019-05-10T22:37:11.253Z,11.20
2019-05-10T22:39:40.162Z,11.00
2019-05-10T22:42:09.295Z,11.00
2019-05-10T22:44:39.054Z,10.90
2019-05-10T22:47:08.453Z,10.90
2019-05-10T22:49:37.849Z,10.80
2019-05-10T22:52:06.986Z,10.90
2019-05-10T22:54:36.790Z,10.90
2019-05-10T22:57:05.616Z,10.90
2019-05-10T22:59:34.967Z,10.90
2019-05-10T23:02:03.843Z,10.90
2019-05-10T23:04:33.254Z,10.80
2019-05-10T23:07:02.353Z,10.80
2019-05-10T23:09:31.758Z,10.90
2019-05-10T23:12:01.185Z,10.80
2019-05-10T23:14:30.685Z,10.80
2019-05-10T23:17:00.477Z,10.80
2019-05-10T23:19:29.901Z,10.80
2019-05-10T23:21:59.026Z,10.80
2019-05-10T23:24:40.490Z,10.90
2019-05-10T23:27:09.465Z,10.80
2019-05-10T23:29:38.546Z,10.90
2019-05-10T23:32:07.956Z,11.00
2019-05-10T23:34:37.154Z,11.10
2019-05-10T23:37:06.215Z,11.20
2019-05-10T23:39:40.888Z,11.30
2019-05-10T23:42:05.827Z,11.40
2019-05-10T23:44:34.888Z,11.40
2019-05-10T23:47:04.273Z,11.50
2019-05-10T23:49:33.579Z,11.60
2019-05-10T23:52:02.647Z,11.60
2019-05-10T23:54:32.101Z,11.80
2019-05-10T23:57:01.279Z,11.90
2019-05-10T23:59:30.833Z,12.10
